New Orleans, Louisiana
Current Conditions -  °F | °C
As of 12:55 PM on Friday 24 Oct 2014 (Local Time) from KVSH Reporting Station
Clear Clear  
Wind Chill: 72°   Ceiling: Unl
Heat Index: 72°   Visibility: 10mi
Dew Point: 43°   Wind: 5mph
Humidity: 35%   Direction: 360°N
Pressure: 30.09"   Gusts: NA
Location:  29.95°N, 90.08°W
Report Text: KVSH 241755Z AUTO 36004KT 10SM CLR 22/06 A3009 RMK AO1 10220 20150 57010
Loading
Personal Weather Stations






























Interactive Weather Map
Tropical Storm Tracking
New forecast layout! Learn more

10-Day Weather Forecast

Advertisements
Track Severe Weather on mobile